Terminal Aerodrome Forecast
Issued by NWS Norman, OK

Home | Current Version | Previous Version | Text Only | Print | Product List | Glossary On
Versions: 1 2 3 4 5 6 7 8 9 10 11 12
000
FTUS44 KOUN 251120
TAFSPS
TAF
KSPS 251120Z 2512/2612 18016KT P6SM BKN250
     FM251400 21016G25KT P6SM BKN250
     FM260000 18014KT P6SM BKN150
     FM260800 03010KT P6SM BKN100=

USA.gov is the U.S. government's official web portal to all federal, state and local government web resources and services.